sensor_id;sensor_type;location;lat;lon;timestamp;pressure;altitude;pressure_sealevel;temperature;humidity
48041;BME280;33815;48.386;11.738;2023-09-12T00:00:18;96289.28;;;14.90;100.00
48041;BME280;33815;48.386;11.738;2023-09-12T00:02:43;96295.34;;;14.90;100.00
48041;BME280;33815;48.386;11.738;2023-09-12T00:05:08;96294.06;;;14.86;100.00
48041;BME280;33815;48.386;11.738;2023-09-12T00:07:35;96299.50;;;14.85;100.00
48041;BME280;33815;48.386;11.738;2023-09-12T00:10:00;96286.69;;;14.75;100.00
48041;BME280;33815;48.386;11.738;2023-09-12T00:12:25;96286.06;;;14.73;100.00
48041;BME280;33815;48.386;11.738;2023-09-12T00:14:51;96284.25;;;14.73;100.00
48041;BME280;33815;48.386;11.738;2023-09-12T00:17:16;96276.75;;;14.70;100.00
48041;BME280;33815;48.386;11.738;2023-09-12T00:19:42;96266.69;;;14.59;100.00
48041;BME280;33815;48.386;11.738;2023-09-12T00:22:08;96277.31;;;14.66;100.00
48041;BME280;33815;48.386;11.738;2023-09-12T00:24:33;96271.59;;;14.62;100.00
48041;BME280;33815;48.386;11.738;2023-09-12T00:26:58;96278.97;;;14.59;100.00
48041;BME280;33815;48.386;11.738;2023-09-12T00:29:23;96266.13;;;14.49;100.00
48041;BME280;33815;48.386;11.738;2023-09-12T00:31:49;96271.84;;;14.52;100.00
48041;BME280;33815;48.386;11.738;2023-09-12T00:34:17;96262.91;;;14.47;100.00
48041;BME280;33815;48.386;11.738;2023-09-12T00:36:42;96268.94;;;14.47;100.00
48041;BME280;33815;48.386;11.738;2023-09-12T00:39:08;96262.09;;;14.46;100.00
48041;BME280;33815;48.386;11.738;2023-09-12T00:41:33;96263.72;;;14.47;100.00
48041;BME280;33815;48.386;11.738;2023-09-12T00:43:58;96257.38;;;14.42;100.00
48041;BME280;33815;48.386;11.738;2023-09-12T00:46:24;96255.03;;;14.32;100.00
48041;BME280;33815;48.386;11.738;2023-09-12T00:48:51;96248.72;;;14.26;100.00
48041;BME280;33815;48.386;11.738;2023-09-12T00:51:19;96245.47;;;14.24;100.00
48041;BME280;33815;48.386;11.738;2023-09-12T00:53:47;96250.06;;;14.22;100.00
48041;BME280;33815;48.386;11.738;2023-09-12T00:56:13;96244.81;;;14.22;100.00
48041;BME280;33815;48.386;11.738;2023-09-12T00:58:38;96237.16;;;14.20;100.00
48041;BME280;33815;48.386;11.738;2023-09-12T01:01:04;96239.34;;;14.17;100.00
48041;BME280;33815;48.386;11.738;2023-09-12T01:03:30;96240.88;;;14.11;100.00
48041;BME280;33815;48.386;11.738;2023-09-12T01:05:57;96250.34;;;14.12;100.00
48041;BME280;33815;48.386;11.738;2023-09-12T01:08:23;96239.78;;;14.05;100.00
48041;BME280;33815;48.386;11.738;2023-09-12T01:10:50;96256.41;;;14.13;100.00
48041;BME280;33815;48.386;11.738;2023-09-12T01:13:18;96239.94;;;14.04;100.00
48041;BME280;33815;48.386;11.738;2023-09-12T01:15:43;96237.44;;;13.96;100.00
48041;BME280;33815;48.386;11.738;2023-09-12T01:18:09;96247.81;;;14.04;100.00
48041;BME280;33815;48.386;11.738;2023-09-12T01:20:35;96244.94;;;13.99;100.00
48041;BME280;33815;48.386;11.738;2023-09-12T01:23:21;96247.38;;;14.00;100.00
48041;BME280;33815;48.386;11.738;2023-09-12T01:28:37;96247.81;;;13.89;100.00
48041;BME280;33815;48.386;11.738;2023-09-12T01:31:05;96250.31;;;13.82;100.00
48041;BME280;33815;48.386;11.738;2023-09-12T01:33:30;96245.44;;;13.79;100.00
48041;BME280;33815;48.386;11.738;2023-09-12T01:35:56;96253.13;;;13.81;100.00
48041;BME280;33815;48.386;11.738;2023-09-12T01:38:24;96235.59;;;13.66;100.00
48041;BME280;33815;48.386;11.738;2023-09-12T01:40:51;96248.94;;;13.71;100.00
48041;BME280;33815;48.386;11.738;2023-09-12T01:43:19;96253.03;;;13.74;100.00
48041;BME280;33815;48.386;11.738;2023-09-12T01:45:47;96239.19;;;13.65;100.00
48041;BME280;33815;48.386;11.738;2023-09-12T01:48:19;96241.81;;;13.65;100.00
48041;BME280;33815;48.386;11.738;2023-09-12T01:50:46;96246.88;;;13.67;100.00
48041;BME280;33815;48.386;11.738;2023-09-12T01:53:12;96255.00;;;13.72;100.00
48041;BME280;33815;48.386;11.738;2023-09-12T01:55:39;96240.00;;;13.66;100.00
48041;BME280;33815;48.386;11.738;2023-09-12T01:58:06;96247.03;;;13.65;100.00
48041;BME280;33815;48.386;11.738;2023-09-12T02:00:33;96244.59;;;13.64;100.00
48041;BME280;33815;48.386;11.738;2023-09-12T02:02:58;96251.63;;;13.63;100.00
48041;BME280;33815;48.386;11.738;2023-09-12T02:05:23;96241.25;;;13.55;100.00
48041;BME280;33815;48.386;11.738;2023-09-12T02:07:49;96246.66;;;13.53;100.00
48041;BME280;33815;48.386;11.738;2023-09-12T02:10:15;96251.72;;;13.55;100.00
48041;BME280;33815;48.386;11.738;2023-09-12T02:12:41;96265.81;;;13.54;100.00
48041;BME280;33815;48.386;11.738;2023-09-12T02:15:07;96246.44;;;13.40;100.00
48041;BME280;33815;48.386;11.738;2023-09-12T02:17:32;96260.81;;;13.44;100.00
48041;BME280;33815;48.386;11.738;2023-09-12T02:19:57;96273.53;;;13.47;100.00
48041;BME280;33815;48.386;11.738;2023-09-12T02:22:23;96264.06;;;13.46;100.00
48041;BME280;33815;48.386;11.738;2023-09-12T02:24:49;96266.22;;;13.43;100.00
48041;BME280;33815;48.386;11.738;2023-09-12T02:27:14;96272.75;;;13.47;100.00
48041;BME280;33815;48.386;11.738;2023-09-12T02:29:40;96273.25;;;13.42;100.00
48041;BME280;33815;48.386;11.738;2023-09-12T02:32:06;96271.34;;;13.36;100.00
48041;BME280;33815;48.386;11.738;2023-09-12T02:34:32;96275.59;;;13.37;100.00
48041;BME280;33815;48.386;11.738;2023-09-12T02:36:57;96276.72;;;13.34;100.00
48041;BME280;33815;48.386;11.738;2023-09-12T02:39:23;96266.13;;;13.28;100.00
48041;BME280;33815;48.386;11.738;2023-09-12T02:41:48;96279.22;;;13.28;100.00
48041;BME280;33815;48.386;11.738;2023-09-12T02:44:13;96274.69;;;13.22;100.00
48041;BME280;33815;48.386;11.738;2023-09-12T02:46:39;96288.88;;;13.27;100.00
48041;BME280;33815;48.386;11.738;2023-09-12T02:49:04;96271.94;;;13.15;100.00
48041;BME280;33815;48.386;11.738;2023-09-12T02:51:29;96249.47;;;12.97;100.00
48041;BME280;33815;48.386;11.738;2023-09-12T02:53:54;96283.53;;;13.20;100.00
48041;BME280;33815;48.386;11.738;2023-09-12T02:56:20;96279.75;;;13.23;100.00
48041;BME280;33815;48.386;11.738;2023-09-12T02:58:49;96257.22;;;13.14;100.00
48041;BME280;33815;48.386;11.738;2023-09-12T03:01:16;96269.16;;;13.16;100.00
48041;BME280;33815;48.386;11.738;2023-09-12T03:03:41;96259.72;;;13.07;100.00
48041;BME280;33815;48.386;11.738;2023-09-12T03:06:06;96271.81;;;13.08;100.00
48041;BME280;33815;48.386;11.738;2023-09-12T03:08:32;96274.97;;;13.03;100.00
48041;BME280;33815;48.386;11.738;2023-09-12T03:10:57;96268.81;;;12.96;100.00
48041;BME280;33815;48.386;11.738;2023-09-12T03:13:26;96264.06;;;12.92;100.00
48041;BME280;33815;48.386;11.738;2023-09-12T03:15:52;96265.06;;;12.91;100.00
48041;BME280;33815;48.386;11.738;2023-09-12T03:18:17;96273.03;;;12.97;100.00
48041;BME280;33815;48.386;11.738;2023-09-12T03:20:43;96275.81;;;12.96;100.00
48041;BME280;33815;48.386;11.738;2023-09-12T03:23:08;96277.09;;;13.00;100.00
48041;BME280;33815;48.386;11.738;2023-09-12T03:25:37;96276.28;;;12.99;100.00
48041;BME280;33815;48.386;11.738;2023-09-12T03:28:04;96261.75;;;12.97;100.00
48041;BME280;33815;48.386;11.738;2023-09-12T03:30:29;96269.44;;;12.98;100.00
48041;BME280;33815;48.386;11.738;2023-09-12T03:32:54;96250.53;;;12.88;100.00
48041;BME280;33815;48.386;11.738;2023-09-12T03:35:20;96260.16;;;12.88;100.00
48041;BME280;33815;48.386;11.738;2023-09-12T03:37:45;96278.16;;;12.91;100.00
48041;BME280;33815;48.386;11.738;2023-09-12T03:40:10;96276.69;;;12.88;100.00
48041;BME280;33815;48.386;11.738;2023-09-12T03:42:36;96264.63;;;12.79;100.00
48041;BME280;33815;48.386;11.738;2023-09-12T03:45:02;96260.06;;;12.81;100.00
48041;BME280;33815;48.386;11.738;2023-09-12T03:47:28;96261.53;;;12.83;100.00
48041;BME280;33815;48.386;11.738;2023-09-12T03:49:53;96263.78;;;12.87;100.00
48041;BME280;33815;48.386;11.738;2023-09-12T03:52:18;96252.66;;;12.84;100.00
48041;BME280;33815;48.386;11.738;2023-09-12T03:54:44;96267.03;;;12.89;100.00
48041;BME280;33815;48.386;11.738;2023-09-12T03:57:09;96263.63;;;12.88;100.00
48041;BME280;33815;48.386;11.738;2023-09-12T03:59:34;96263.78;;;12.87;100.00
48041;BME280;33815;48.386;11.738;2023-09-12T04:02:02;96265.91;;;12.83;100.00
48041;BME280;33815;48.386;11.738;2023-09-12T04:04:28;96261.56;;;12.75;100.00
48041;BME280;33815;48.386;11.738;2023-09-12T04:06:53;96263.69;;;12.72;100.00
48041;BME280;33815;48.386;11.738;2023-09-12T04:09:19;96257.66;;;12.71;100.00
48041;BME280;33815;48.386;11.738;2023-09-12T04:11:45;96272.66;;;12.77;100.00
48041;BME280;33815;48.386;11.738;2023-09-12T04:14:10;96278.38;;;12.81;100.00
48041;BME280;33815;48.386;11.738;2023-09-12T04:16:35;96268.13;;;12.71;100.00
48041;BME280;33815;48.386;11.738;2023-09-12T04:19:01;96269.28;;;12.68;100.00
48041;BME280;33815;48.386;11.738;2023-09-12T04:21:26;96275.97;;;12.71;100.00
48041;BME280;33815;48.386;11.738;2023-09-12T04:23:51;96273.84;;;12.66;100.00
48041;BME280;33815;48.386;11.738;2023-09-12T04:26:17;96273.03;;;12.66;100.00
48041;BME280;33815;48.386;11.738;2023-09-12T04:28:42;96279.56;;;12.70;100.00
48041;BME280;33815;48.386;11.738;2023-09-12T04:31:08;96289.97;;;12.78;100.00
48041;BME280;33815;48.386;11.738;2023-09-12T04:33:33;96284.75;;;12.78;100.00
48041;BME280;33815;48.386;11.738;2023-09-12T04:36:02;96291.63;;;12.79;100.00
48041;BME280;33815;48.386;11.738;2023-09-12T04:38:27;96282.94;;;12.79;100.00
48041;BME280;33815;48.386;11.738;2023-09-12T04:40:56;96283.47;;;12.74;100.00
48041;BME280;33815;48.386;11.738;2023-09-12T04:43:22;96279.72;;;12.68;100.00
48041;BME280;33815;48.386;11.738;2023-09-12T04:45:48;96286.59;;;12.70;100.00
48041;BME280;33815;48.386;11.738;2023-09-12T04:48:13;96277.66;;;12.56;100.00
48041;BME280;33815;48.386;11.738;2023-09-12T04:50:41;96279.78;;;12.52;100.00
48041;BME280;33815;48.386;11.738;2023-09-12T04:53:07;96282.22;;;12.54;100.00
48041;BME280;33815;48.386;11.738;2023-09-12T04:55:35;96277.69;;;12.47;100.00
48041;BME280;33815;48.386;11.738;2023-09-12T04:58:00;96275.25;;;12.46;100.00
48041;BME280;33815;48.386;11.738;2023-09-12T05:00:26;96276.88;;;12.47;100.00
48041;BME280;33815;48.386;11.738;2023-09-12T05:02:51;96262.69;;;12.41;100.00
48041;BME280;33815;48.386;11.738;2023-09-12T05:05:16;96272.81;;;12.44;100.00
48041;BME280;33815;48.386;11.738;2023-09-12T05:07:42;96281.78;;;12.50;100.00
48041;BME280;33815;48.386;11.738;2023-09-12T05:10:07;96293.53;;;12.54;100.00
48041;BME280;33815;48.386;11.738;2023-09-12T05:12:32;96281.63;;;12.43;100.00
48041;BME280;33815;48.386;11.738;2023-09-12T05:14:58;96290.59;;;12.49;100.00
48041;BME280;33815;48.386;11.738;2023-09-12T05:17:23;96279.00;;;12.51;100.00
48041;BME280;33815;48.386;11.738;2023-09-12T05:19:48;96288.59;;;12.59;100.00
48041;BME280;33815;48.386;11.738;2023-09-12T05:22:14;96295.28;;;12.62;100.00
48041;BME280;33815;48.386;11.738;2023-09-12T05:24:39;96285.50;;;12.56;100.00
48041;BME280;33815;48.386;11.738;2023-09-12T05:27:04;96297.72;;;12.63;100.00
48041;BME280;33815;48.386;11.738;2023-09-12T05:29:31;96294.75;;;12.66;100.00
48041;BME280;33815;48.386;11.738;2023-09-12T05:31:56;96268.19;;;12.55;100.00
48041;BME280;33815;48.386;11.738;2023-09-12T05:34:21;96296.72;;;12.73;100.00
48041;BME280;33815;48.386;11.738;2023-09-12T05:36:46;96295.88;;;12.72;100.00
48041;BME280;33815;48.386;11.738;2023-09-12T05:39:12;96294.09;;;12.73;100.00
48041;BME280;33815;48.386;11.738;2023-09-12T05:41:39;96303.19;;;12.85;100.00
48041;BME280;33815;48.386;11.738;2023-09-12T05:44:04;96296.50;;;12.82;100.00
48041;BME280;33815;48.386;11.738;2023-09-12T05:46:29;96299.75;;;12.84;100.00
48041;BME280;33815;48.386;11.738;2023-09-12T05:48:54;96301.53;;;12.92;100.00
48041;BME280;33815;48.386;11.738;2023-09-12T05:51:20;96304.59;;;12.96;100.00
48041;BME280;33815;48.386;11.738;2023-09-12T05:53:45;96310.75;;;13.03;100.00
48041;BME280;33815;48.386;11.738;2023-09-12T05:56:10;96276.03;;;12.86;100.00
48041;BME280;33815;48.386;11.738;2023-09-12T05:58:35;96311.72;;;13.10;100.00
48041;BME280;33815;48.386;11.738;2023-09-12T06:01:01;96308.75;;;13.13;100.00
48041;BME280;33815;48.386;11.738;2023-09-12T06:03:26;96316.22;;;13.25;100.00
48041;BME280;33815;48.386;11.738;2023-09-12T06:05:51;96313.72;;;13.31;100.00
48041;BME280;33815;48.386;11.738;2023-09-12T06:08:17;96303.25;;;13.31;100.00
48041;BME280;33815;48.386;11.738;2023-09-12T06:10:42;96311.53;;;13.43;100.00
48041;BME280;33815;48.386;11.738;2023-09-12T06:13:07;96303.97;;;13.48;100.00
48041;BME280;33815;48.386;11.738;2023-09-12T06:15:33;96307.34;;;13.57;100.00
48041;BME280;33815;48.386;11.738;2023-09-12T06:17:58;96298.44;;;13.66;100.00
48041;BME280;33815;48.386;11.738;2023-09-12T06:20:23;96303.25;;;13.78;100.00
48041;BME280;33815;48.386;11.738;2023-09-12T06:22:49;96305.09;;;13.92;100.00
48041;BME280;33815;48.386;11.738;2023-09-12T06:25:14;96302.03;;;14.03;100.00
48041;BME280;33815;48.386;11.738;2023-09-12T06:27:39;96315.59;;;14.22;100.00
48041;BME280;33815;48.386;11.738;2023-09-12T06:30:05;96306.56;;;14.25;100.00
48041;BME280;33815;48.386;11.738;2023-09-12T06:32:31;96301.84;;;14.35;100.00
48041;BME280;33815;48.386;11.738;2023-09-12T06:34:56;96320.44;;;14.63;100.00
48041;BME280;33815;48.386;11.738;2023-09-12T06:37:21;96302.13;;;14.70;100.00
48041;BME280;33815;48.386;11.738;2023-09-12T06:39:49;96305.56;;;14.85;100.00
48041;BME280;33815;48.386;11.738;2023-09-12T06:42:14;96316.50;;;15.04;100.00
48041;BME280;33815;48.386;11.738;2023-09-12T06:44:40;96297.66;;;15.00;100.00
48041;BME280;33815;48.386;11.738;2023-09-12T06:47:05;96316.13;;;15.29;100.00
48041;BME280;33815;48.386;11.738;2023-09-12T06:49:30;96314.03;;;15.39;100.00
48041;BME280;33815;48.386;11.738;2023-09-12T06:51:57;96306.03;;;15.47;100.00
48041;BME280;33815;48.386;11.738;2023-09-12T06:54:22;96308.50;;;15.55;100.00
48041;BME280;33815;48.386;11.738;2023-09-12T06:56:48;96305.81;;;15.70;100.00
48041;BME280;33815;48.386;11.738;2023-09-12T06:59:13;96297.91;;;15.92;100.00
48041;BME280;33815;48.386;11.738;2023-09-12T07:01:38;96297.59;;;16.02;100.00
48041;BME280;33815;48.386;11.738;2023-09-12T07:04:04;96315.19;;;16.30;100.00
48041;BME280;33815;48.386;11.738;2023-09-12T07:06:29;96308.03;;;16.52;100.00
48041;BME280;33815;48.386;11.738;2023-09-12T07:08:54;96303.19;;;16.55;100.00
48041;BME280;33815;48.386;11.738;2023-09-12T07:11:20;96311.97;;;16.76;100.00
48041;BME280;33815;48.386;11.738;2023-09-12T07:13:45;96319.63;;;17.12;100.00
48041;BME280;33815;48.386;11.738;2023-09-12T07:16:11;96323.56;;;17.37;100.00
48041;BME280;33815;48.386;11.738;2023-09-12T07:18:37;96315.28;;;17.46;100.00
48041;BME280;33815;48.386;11.738;2023-09-12T07:21:04;96324.63;;;17.62;100.00
48041;BME280;33815;48.386;11.738;2023-09-12T07:23:30;96301.91;;;17.68;100.00
48041;BME280;33815;48.386;11.738;2023-09-12T07:25:57;96317.19;;;17.93;100.00
48041;BME280;33815;48.386;11.738;2023-09-12T07:28:26;96322.63;;;18.18;100.00
48041;BME280;33815;48.386;11.738;2023-09-12T07:30:52;96311.03;;;18.39;100.00
48041;BME280;33815;48.386;11.738;2023-09-12T07:33:18;96331.41;;;18.84;100.00
48041;BME280;33815;48.386;11.738;2023-09-12T07:35:43;96320.22;;;19.02;100.00
48041;BME280;33815;48.386;11.738;2023-09-12T07:38:09;96322.75;;;19.22;100.00
48041;BME280;33815;48.386;11.738;2023-09-12T07:40:34;96318.66;;;19.26;100.00
48041;BME280;33815;48.386;11.738;2023-09-12T07:42:59;96310.75;;;19.26;100.00
48041;BME280;33815;48.386;11.738;2023-09-12T07:45:25;96317.13;;;19.44;100.00
48041;BME280;33815;48.386;11.738;2023-09-12T07:47:50;96322.94;;;19.59;100.00
48041;BME280;33815;48.386;11.738;2023-09-12T07:50:16;96311.44;;;19.72;100.00
48041;BME280;33815;48.386;11.738;2023-09-12T07:52:41;96305.13;;;19.80;100.00
48041;BME280;33815;48.386;11.738;2023-09-12T07:55:07;96326.75;;;20.20;100.00
48041;BME280;33815;48.386;11.738;2023-09-12T07:57:33;96323.19;;;20.33;100.00
48041;BME280;33815;48.386;11.738;2023-09-12T07:59:59;96310.69;;;20.41;100.00
48041;BME280;33815;48.386;11.738;2023-09-12T08:02:25;96306.22;;;20.41;100.00
48041;BME280;33815;48.386;11.738;2023-09-12T08:04:50;96328.09;;;20.74;100.00
48041;BME280;33815;48.386;11.738;2023-09-12T08:07:16;96314.56;;;20.82;100.00
48041;BME280;33815;48.386;11.738;2023-09-12T08:09:54;96328.06;;;21.11;100.00
48041;BME280;33815;48.386;11.738;2023-09-12T08:12:20;96322.59;;;21.24;100.00
48041;BME280;33815;48.386;11.738;2023-09-12T08:14:46;96329.06;;;21.28;100.00
48041;BME280;33815;48.386;11.738;2023-09-12T08:17:12;96331.75;;;21.40;100.00
48041;BME280;33815;48.386;11.738;2023-09-12T08:19:38;96323.25;;;21.50;100.00
48041;BME280;33815;48.386;11.738;2023-09-12T08:22:03;96327.75;;;21.80;100.00
48041;BME280;33815;48.386;11.738;2023-09-12T08:24:28;96308.50;;;21.96;100.00
48041;BME280;33815;48.386;11.738;2023-09-12T08:26:53;96316.25;;;22.21;100.00
48041;BME280;33815;48.386;11.738;2023-09-12T08:29:19;96310.72;;;22.23;100.00
48041;BME280;33815;48.386;11.738;2023-09-12T08:31:45;96315.69;;;22.31;100.00
48041;BME280;33815;48.386;11.738;2023-09-12T08:34:12;96324.94;;;22.40;98.39
48041;BME280;33815;48.386;11.738;2023-09-12T08:36:37;96316.97;;;22.64;99.85
48041;BME280;33815;48.386;11.738;2023-09-12T08:39:02;96313.72;;;22.74;100.00
48041;BME280;33815;48.386;11.738;2023-09-12T08:41:29;96323.47;;;22.97;96.04
48041;BME280;33815;48.386;11.738;2023-09-12T08:43:55;96312.00;;;23.20;94.63
48041;BME280;33815;48.386;11.738;2023-09-12T08:46:22;96319.06;;;23.60;89.67
48041;BME280;33815;48.386;11.738;2023-09-12T08:48:49;96327.50;;;23.69;86.56
48041;BME280;33815;48.386;11.738;2023-09-12T08:51:14;96309.72;;;23.58;84.50
48041;BME280;33815;48.386;11.738;2023-09-12T08:53:40;96310.78;;;23.74;84.87
48041;BME280;33815;48.386;11.738;2023-09-12T08:56:05;96323.75;;;23.99;88.18
48041;BME280;33815;48.386;11.738;2023-09-12T08:58:32;96320.16;;;24.27;85.18
48041;BME280;33815;48.386;11.738;2023-09-12T09:00:59;96325.25;;;24.29;85.43
48041;BME280;33815;48.386;11.738;2023-09-12T09:03:25;96314.97;;;24.38;83.33
48041;BME280;33815;48.386;11.738;2023-09-12T09:05:51;96318.19;;;24.57;85.40
48041;BME280;33815;48.386;11.738;2023-09-12T09:08:18;96309.75;;;24.82;85.38
48041;BME280;33815;48.386;11.738;2023-09-12T09:10:58;96316.63;;;25.00;85.42
48041;BME280;33815;48.386;11.738;2023-09-12T09:13:25;96316.63;;;25.27;86.21
48041;BME280;33815;48.386;11.738;2023-09-12T09:16:09;96308.63;;;25.50;80.55
48041;BME280;33815;48.386;11.738;2023-09-12T09:21:36;96314.03;;;25.87;79.23
48041;BME280;33815;48.386;11.738;2023-09-12T09:24:06;96295.41;;;25.92;77.53
48041;BME280;33815;48.386;11.738;2023-09-12T09:27:01;96302.50;;;26.14;75.13
48041;BME280;33815;48.386;11.738;2023-09-12T09:29:27;96301.25;;;26.27;76.52
48041;BME280;33815;48.386;11.738;2023-09-12T09:31:58;96290.78;;;26.15;71.51
48041;BME280;33815;48.386;11.738;2023-09-12T09:34:23;96298.09;;;26.35;77.44
48041;BME280;33815;48.386;11.738;2023-09-12T09:39:15;96300.22;;;26.28;72.61
48041;BME280;33815;48.386;11.738;2023-09-12T09:41:41;96305.88;;;26.37;74.63
48041;BME280;33815;48.386;11.738;2023-09-12T09:44:08;96294.09;;;26.80;77.97
48041;BME280;33815;48.386;11.738;2023-09-12T09:46:35;96288.09;;;27.31;71.88
48041;BME280;33815;48.386;11.738;2023-09-12T09:49:02;96273.44;;;27.60;68.69
48041;BME280;33815;48.386;11.738;2023-09-12T09:51:29;96287.38;;;27.57;70.61
48041;BME280;33815;48.386;11.738;2023-09-12T09:53:55;96272.63;;;27.64;69.49
48041;BME280;33815;48.386;11.738;2023-09-12T09:56:23;96276.66;;;27.72;65.44
48041;BME280;33815;48.386;11.738;2023-09-12T09:58:53;96283.91;;;27.82;68.49
48041;BME280;33815;48.386;11.738;2023-09-12T10:01:20;96283.88;;;28.18;69.64
48041;BME280;33815;48.386;11.738;2023-09-12T10:03:49;96276.59;;;28.44;66.79
48041;BME280;33815;48.386;11.738;2023-09-12T10:06:16;96270.47;;;28.28;64.74
48041;BME280;33815;48.386;11.738;2023-09-12T10:08:44;96271.19;;;28.60;66.04
48041;BME280;33815;48.386;11.738;2023-09-12T10:11:11;96253.38;;;28.89;59.07
48041;BME280;33815;48.386;11.738;2023-09-12T10:13:39;96273.19;;;28.99;62.34
48041;BME280;33815;48.386;11.738;2023-09-12T10:16:09;96253.84;;;29.02;58.89
48041;BME280;33815;48.386;11.738;2023-09-12T10:18:41;96242.63;;;29.00;56.74
48041;BME280;33815;48.386;11.738;2023-09-12T10:21:10;96263.66;;;28.77;61.28
48041;BME280;33815;48.386;11.738;2023-09-12T10:23:45;96259.56;;;28.90;59.65
48041;BME280;33815;48.386;11.738;2023-09-12T10:26:13;96240.59;;;28.76;55.96
48041;BME280;33815;48.386;11.738;2023-09-12T10:28:40;96255.53;;;28.93;56.00
48041;BME280;33815;48.386;11.738;2023-09-12T10:31:07;96263.22;;;29.10;58.94
48041;BME280;33815;48.386;11.738;2023-09-12T10:33:33;96251.28;;;29.36;53.31
48041;BME280;33815;48.386;11.738;2023-09-12T10:35:59;96251.28;;;29.31;57.44
48041;BME280;33815;48.386;11.738;2023-09-12T10:38:26;96249.94;;;29.34;57.04
48041;BME280;33815;48.386;11.738;2023-09-12T10:40:54;96246.06;;;29.50;54.80
48041;BME280;33815;48.386;11.738;2023-09-12T10:43:21;96239.78;;;29.20;51.70
48041;BME280;33815;48.386;11.738;2023-09-12T10:45:49;96226.75;;;29.03;53.81
48041;BME280;33815;48.386;11.738;2023-09-12T10:48:15;96236.81;;;29.67;54.43
48041;BME280;33815;48.386;11.738;2023-09-12T10:50:40;96239.38;;;29.82;53.45
48041;BME280;33815;48.386;11.738;2023-09-12T10:53:12;96231.31;;;29.82;52.70
48041;BME280;33815;48.386;11.738;2023-09-12T10:55:39;96229.16;;;29.84;50.34
48041;BME280;33815;48.386;11.738;2023-09-12T10:58:07;96228.38;;;29.84;48.01
48041;BME280;33815;48.386;11.738;2023-09-12T11:00:33;96226.78;;;29.78;49.97
48041;BME280;33815;48.386;11.738;2023-09-12T11:03:00;96231.28;;;29.87;52.10
48041;BME280;33815;48.386;11.738;2023-09-12T11:05:36;96228.81;;;30.20;47.70
48041;BME280;33815;48.386;11.738;2023-09-12T11:08:02;96216.56;;;30.09;49.50
48041;BME280;33815;48.386;11.738;2023-09-12T11:10:29;96224.53;;;30.19;49.63
48041;BME280;33815;48.386;11.738;2023-09-12T11:12:57;96198.16;;;30.21;48.95
48041;BME280;33815;48.386;11.738;2023-09-12T11:15:24;96231.34;;;30.36;50.21
48041;BME280;33815;48.386;11.738;2023-09-12T11:18:04;96215.69;;;30.43;46.58
48041;BME280;33815;48.386;11.738;2023-09-12T11:20:59;96224.06;;;30.36;48.71
48041;BME280;33815;48.386;11.738;2023-09-12T11:23:28;96232.47;;;30.30;50.65
48041;BME280;33815;48.386;11.738;2023-09-12T11:26:06;96221.09;;;30.38;46.78
48041;BME280;33815;48.386;11.738;2023-09-12T11:28:32;96216.59;;;30.57;47.27
48041;BME280;33815;48.386;11.738;2023-09-12T11:30:58;96204.75;;;30.58;48.74
48041;BME280;33815;48.386;11.738;2023-09-12T11:33:27;96200.84;;;30.89;44.95
48041;BME280;33815;48.386;11.738;2023-09-12T11:35:53;96221.56;;;30.88;48.95
48041;BME280;33815;48.386;11.738;2023-09-12T11:38:30;96215.25;;;30.98;52.17
48041;BME280;33815;48.386;11.738;2023-09-12T11:40:57;96206.88;;;30.81;44.17
48041;BME280;33815;48.386;11.738;2023-09-12T11:43:24;96213.75;;;30.68;46.07
48041;BME280;33815;48.386;11.738;2023-09-12T11:45:50;96212.56;;;30.79;46.35
48041;BME280;33815;48.386;11.738;2023-09-12T11:48:19;96214.03;;;30.66;45.53
48041;BME280;33815;48.386;11.738;2023-09-12T11:50:55;96222.78;;;30.77;49.07
48041;BME280;33815;48.386;11.738;2023-09-12T11:53:26;96208.31;;;30.73;46.28
48041;BME280;33815;48.386;11.738;2023-09-12T11:55:54;96205.53;;;30.59;45.01
48041;BME280;33815;48.386;11.738;2023-09-12T11:58:21;96208.47;;;30.38;45.08
48041;BME280;33815;48.386;11.738;2023-09-12T12:00:51;96209.69;;;30.51;44.83
48041;BME280;33815;48.386;11.738;2023-09-12T12:03:18;96210.84;;;30.40;48.98
48041;BME280;33815;48.386;11.738;2023-09-12T12:05:45;96216.88;;;30.56;49.07
48041;BME280;33815;48.386;11.738;2023-09-12T12:08:11;96202.97;;;31.11;45.51
48041;BME280;33815;48.386;11.738;2023-09-12T12:10:37;96200.81;;;31.46;43.29
48041;BME280;33815;48.386;11.738;2023-09-12T12:13:04;96185.34;;;31.38;43.68
48041;BME280;33815;48.386;11.738;2023-09-12T12:15:29;96192.13;;;31.35;44.45
48041;BME280;33815;48.386;11.738;2023-09-12T12:17:55;96185.28;;;30.86;44.49
48041;BME280;33815;48.386;11.738;2023-09-12T12:20:22;96185.88;;;30.83;40.40
48041;BME280;33815;48.386;11.738;2023-09-12T12:22:47;96191.69;;;30.22;44.57
48041;BME280;33815;48.386;11.738;2023-09-12T12:25:14;96206.69;;;30.29;48.54
48041;BME280;33815;48.386;11.738;2023-09-12T12:27:40;96199.81;;;30.17;52.97
48041;BME280;33815;48.386;11.738;2023-09-12T12:30:07;96195.28;;;30.37;48.91
48041;BME280;33815;48.386;11.738;2023-09-12T12:32:33;96188.56;;;30.64;44.97
48041;BME280;33815;48.386;11.738;2023-09-12T12:34:58;96193.94;;;30.64;45.96
48041;BME280;33815;48.386;11.738;2023-09-12T12:37:30;96183.41;;;30.86;43.70
48041;BME280;33815;48.386;11.738;2023-09-12T12:39:56;96173.06;;;31.13;40.71
48041;BME280;33815;48.386;11.738;2023-09-12T12:42:21;96176.25;;;31.34;43.09
48041;BME280;33815;48.386;11.738;2023-09-12T12:44:52;96165.50;;;31.67;45.22
48041;BME280;33815;48.386;11.738;2023-09-12T12:47:18;96156.66;;;32.08;40.46